DFOO

Bobo Dioulasso Airport

Bobo Dioulasso, Burkina Faso
METAR DFOO 201200Z 15003KT 100V220 CAVOK 32/23 Q1012
Observed Flight Rules
Oct-20 @ 12:00 UTC (51 minutes ago) Visual Flight Rules
Wind Visibility Clouds
150° at 3 knots 10,000+ meters
  • Clear skies
Temperatures Readings
Current 32°C / 90°F
Dewpoint 23°C / 73°F
Humidity 59%
Altimeter 29.88" Hg
Pressure 1012 hPa
Elevation 460
METAR DFOO 201200Z 15003KT 100V220 CAVOK 32/23 Q1012
Observed Flight Rules
Oct-20 @ 12:00 UTC
(51 minutes ago)
VFR
Wind Visibility
150° at 3 knots 10,000+ meters
Clouds
  • Clear skies
Temperature Dewpoint
32°C / 90°F 23°C / 73°F
Humidity Altimeter Pressure
59% 29.88" Hg 1012 hPa